sensor_id;sensor_type;location;lat;lon;timestamp;P1;durP1;ratioP1;P2;durP2;ratioP2
47866;SDS011;33628;50.806;11.586;2023-04-29T00:01:30;11.98;;;9.25;;
47866;SDS011;33628;50.806;11.586;2023-04-29T00:03:56;10.02;;;8.48;;
47866;SDS011;33628;50.806;11.586;2023-04-29T00:06:23;11.18;;;8.98;;
47866;SDS011;33628;50.806;11.586;2023-04-29T00:08:51;10.13;;;7.78;;
47866;SDS011;33628;50.806;11.586;2023-04-29T00:11:18;13.68;;;8.10;;
47866;SDS011;33628;50.806;11.586;2023-04-29T00:13:44;9.73;;;7.65;;
47866;SDS011;33628;50.806;11.586;2023-04-29T00:16:11;14.07;;;8.18;;
47866;SDS011;33628;50.806;11.586;2023-04-29T00:18:38;9.43;;;8.05;;
47866;SDS011;33628;50.806;11.586;2023-04-29T00:21:04;14.82;;;7.97;;
47866;SDS011;33628;50.806;11.586;2023-04-29T00:23:31;12.20;;;8.30;;
47866;SDS011;33628;50.806;11.586;2023-04-29T00:25:59;11.75;;;8.43;;
47866;SDS011;33628;50.806;11.586;2023-04-29T00:28:26;11.23;;;8.27;;
47866;SDS011;33628;50.806;11.586;2023-04-29T00:30:53;11.07;;;9.07;;
47866;SDS011;33628;50.806;11.586;2023-04-29T00:33:20;13.27;;;9.40;;
47866;SDS011;33628;50.806;11.586;2023-04-29T00:35:47;11.20;;;7.97;;
47866;SDS011;33628;50.806;11.586;2023-04-29T00:38:14;9.02;;;7.88;;
47866;SDS011;33628;50.806;11.586;2023-04-29T00:40:41;13.68;;;8.35;;
47866;SDS011;33628;50.806;11.586;2023-04-29T00:43:10;9.30;;;7.78;;
47866;SDS011;33628;50.806;11.586;2023-04-29T00:45:36;12.20;;;9.25;;
47866;SDS011;33628;50.806;11.586;2023-04-29T00:48:03;10.85;;;8.23;;
47866;SDS011;33628;50.806;11.586;2023-04-29T00:50:30;11.48;;;8.60;;
47866;SDS011;33628;50.806;11.586;2023-04-29T00:52:57;24.30;;;8.80;;
47866;SDS011;33628;50.806;11.586;2023-04-29T00:55:24;39.80;;;9.95;;
47866;SDS011;33628;50.806;11.586;2023-04-29T00:57:52;30.75;;;9.13;;
47866;SDS011;33628;50.806;11.586;2023-04-29T01:00:20;33.22;;;9.65;;
47866;SDS011;33628;50.806;11.586;2023-04-29T01:02:47;31.05;;;9.07;;
47866;SDS011;33628;50.806;11.586;2023-04-29T01:05:15;39.35;;;10.30;;
47866;SDS011;33628;50.806;11.586;2023-04-29T01:07:44;30.88;;;10.75;;
47866;SDS011;33628;50.806;11.586;2023-04-29T01:10:19;23.17;;;9.25;;
47866;SDS011;33628;50.806;11.586;2023-04-29T01:12:53;23.80;;;9.27;;
47866;SDS011;33628;50.806;11.586;2023-04-29T01:15:29;35.88;;;8.93;;
47866;SDS011;33628;50.806;11.586;2023-04-29T01:17:59;32.38;;;9.15;;
47866;SDS011;33628;50.806;11.586;2023-04-29T01:20:28;36.13;;;8.70;;
47866;SDS011;33628;50.806;11.586;2023-04-29T01:22:56;37.38;;;7.93;;
47866;SDS011;33628;50.806;11.586;2023-04-29T01:25:24;69.78;;;8.68;;
47866;SDS011;33628;50.806;11.586;2023-04-29T01:28:12;70.80;;;9.07;;
47866;SDS011;33628;50.806;11.586;2023-04-29T01:30:45;128.07;;;9.77;;
47866;SDS011;33628;50.806;11.586;2023-04-29T01:33:19;74.97;;;8.65;;
47866;SDS011;33628;50.806;11.586;2023-04-29T01:35:55;63.10;;;8.85;;
47866;SDS011;33628;50.806;11.586;2023-04-29T01:38:33;79.85;;;9.00;;
47866;SDS011;33628;50.806;11.586;2023-04-29T01:41:08;85.95;;;9.70;;
47866;SDS011;33628;50.806;11.586;2023-04-29T01:43:36;77.00;;;9.73;;
47866;SDS011;33628;50.806;11.586;2023-04-29T01:46:15;51.30;;;9.25;;
47866;SDS011;33628;50.806;11.586;2023-04-29T01:48:44;53.08;;;9.70;;
47866;SDS011;33628;50.806;11.586;2023-04-29T01:51:11;44.35;;;9.75;;
47866;SDS011;33628;50.806;11.586;2023-04-29T01:53:38;33.78;;;9.90;;
47866;SDS011;33628;50.806;11.586;2023-04-29T01:56:09;29.55;;;9.98;;
47866;SDS011;33628;50.806;11.586;2023-04-29T01:58:59;43.78;;;9.60;;
47866;SDS011;33628;50.806;11.586;2023-04-29T02:01:32;32.58;;;9.50;;
47866;SDS011;33628;50.806;11.586;2023-04-29T02:03:59;26.27;;;9.52;;
47866;SDS011;33628;50.806;11.586;2023-04-29T02:06:26;21.98;;;9.82;;
47866;SDS011;33628;50.806;11.586;2023-04-29T02:08:57;26.73;;;11.75;;
47866;SDS011;33628;50.806;11.586;2023-04-29T02:11:25;21.13;;;9.77;;
47866;SDS011;33628;50.806;11.586;2023-04-29T02:13:54;26.90;;;10.82;;
47866;SDS011;33628;50.806;11.586;2023-04-29T02:16:21;20.42;;;9.15;;
47866;SDS011;33628;50.806;11.586;2023-04-29T02:18:58;15.85;;;9.93;;
47866;SDS011;33628;50.806;11.586;2023-04-29T02:21:24;15.70;;;9.70;;
47866;SDS011;33628;50.806;11.586;2023-04-29T02:23:52;18.67;;;9.75;;
47866;SDS011;33628;50.806;11.586;2023-04-29T02:26:22;12.52;;;9.63;;
47866;SDS011;33628;50.806;11.586;2023-04-29T02:28:50;13.85;;;9.18;;
47866;SDS011;33628;50.806;11.586;2023-04-29T02:31:17;11.30;;;9.00;;
47866;SDS011;33628;50.806;11.586;2023-04-29T02:33:47;11.68;;;9.63;;
47866;SDS011;33628;50.806;11.586;2023-04-29T02:36:13;10.88;;;8.98;;
47866;SDS011;33628;50.806;11.586;2023-04-29T02:38:40;13.68;;;10.45;;
47866;SDS011;33628;50.806;11.586;2023-04-29T02:41:07;11.18;;;8.90;;
47866;SDS011;33628;50.806;11.586;2023-04-29T02:43:33;12.00;;;8.55;;
47866;SDS011;33628;50.806;11.586;2023-04-29T02:46:02;12.00;;;9.13;;
47866;SDS011;33628;50.806;11.586;2023-04-29T02:48:29;17.60;;;9.15;;
47866;SDS011;33628;50.806;11.586;2023-04-29T02:50:58;11.15;;;9.15;;
47866;SDS011;33628;50.806;11.586;2023-04-29T02:53:25;11.73;;;9.43;;
47866;SDS011;33628;50.806;11.586;2023-04-29T02:55:51;12.18;;;8.93;;
47866;SDS011;33628;50.806;11.586;2023-04-29T02:58:18;13.30;;;9.50;;
47866;SDS011;33628;50.806;11.586;2023-04-29T03:00:45;11.63;;;9.30;;
47866;SDS011;33628;50.806;11.586;2023-04-29T03:03:12;15.52;;;9.50;;
47866;SDS011;33628;50.806;11.586;2023-04-29T03:05:39;13.63;;;9.75;;
47866;SDS011;33628;50.806;11.586;2023-04-29T03:08:06;12.23;;;9.40;;
47866;SDS011;33628;50.806;11.586;2023-04-29T03:10:35;12.27;;;9.73;;
47866;SDS011;33628;50.806;11.586;2023-04-29T03:13:02;12.07;;;9.75;;
47866;SDS011;33628;50.806;11.586;2023-04-29T03:15:31;12.18;;;9.45;;
47866;SDS011;33628;50.806;11.586;2023-04-29T03:17:58;12.38;;;10.25;;
47866;SDS011;33628;50.806;11.586;2023-04-29T03:20:28;14.43;;;10.23;;
47866;SDS011;33628;50.806;11.586;2023-04-29T03:22:54;11.32;;;9.40;;
47866;SDS011;33628;50.806;11.586;2023-04-29T03:25:21;13.10;;;10.25;;
47866;SDS011;33628;50.806;11.586;2023-04-29T03:27:49;11.07;;;9.10;;
47866;SDS011;33628;50.806;11.586;2023-04-29T03:30:16;12.07;;;9.80;;
47866;SDS011;33628;50.806;11.586;2023-04-29T03:32:48;12.27;;;9.25;;
47866;SDS011;33628;50.806;11.586;2023-04-29T03:35:15;12.50;;;9.60;;
47866;SDS011;33628;50.806;11.586;2023-04-29T03:38:03;11.95;;;9.68;;
47866;SDS011;33628;50.806;11.586;2023-04-29T03:40:32;12.73;;;9.65;;
47866;SDS011;33628;50.806;11.586;2023-04-29T03:42:59;12.55;;;10.30;;
47866;SDS011;33628;50.806;11.586;2023-04-29T03:45:26;12.60;;;9.70;;
47866;SDS011;33628;50.806;11.586;2023-04-29T03:47:52;13.88;;;10.57;;
47866;SDS011;33628;50.806;11.586;2023-04-29T03:50:19;14.15;;;10.75;;
47866;SDS011;33628;50.806;11.586;2023-04-29T03:52:47;12.77;;;10.50;;
47866;SDS011;33628;50.806;11.586;2023-04-29T03:55:17;20.05;;;11.27;;
47866;SDS011;33628;50.806;11.586;2023-04-29T03:57:44;13.48;;;10.23;;
47866;SDS011;33628;50.806;11.586;2023-04-29T04:00:12;13.27;;;9.98;;
47866;SDS011;33628;50.806;11.586;2023-04-29T04:02:43;12.35;;;10.35;;
47866;SDS011;33628;50.806;11.586;2023-04-29T04:05:12;11.52;;;10.30;;
47866;SDS011;33628;50.806;11.586;2023-04-29T04:07:41;13.32;;;10.07;;
47866;SDS011;33628;50.806;11.586;2023-04-29T04:10:28;12.18;;;9.20;;
47866;SDS011;33628;50.806;11.586;2023-04-29T04:12:56;11.43;;;9.57;;
47866;SDS011;33628;50.806;11.586;2023-04-29T04:15:22;11.38;;;9.65;;
47866;SDS011;33628;50.806;11.586;2023-04-29T04:17:49;12.30;;;9.10;;
47866;SDS011;33628;50.806;11.586;2023-04-29T04:20:16;12.07;;;8.85;;
47866;SDS011;33628;50.806;11.586;2023-04-29T04:22:43;11.68;;;8.75;;
47866;SDS011;33628;50.806;11.586;2023-04-29T04:25:23;11.32;;;8.95;;
47866;SDS011;33628;50.806;11.586;2023-04-29T04:27:53;10.05;;;8.13;;
47866;SDS011;33628;50.806;11.586;2023-04-29T04:30:39;11.68;;;8.68;;
47866;SDS011;33628;50.806;11.586;2023-04-29T04:33:06;12.38;;;8.65;;
47866;SDS011;33628;50.806;11.586;2023-04-29T04:35:35;11.32;;;9.23;;
47866;SDS011;33628;50.806;11.586;2023-04-29T04:38:01;9.95;;;8.15;;
47866;SDS011;33628;50.806;11.586;2023-04-29T04:40:28;12.43;;;9.52;;
47866;SDS011;33628;50.806;11.586;2023-04-29T04:43:14;13.60;;;9.02;;
47866;SDS011;33628;50.806;11.586;2023-04-29T04:45:42;10.82;;;8.85;;
47866;SDS011;33628;50.806;11.586;2023-04-29T04:48:09;11.88;;;9.55;;
47866;SDS011;33628;50.806;11.586;2023-04-29T04:50:38;12.13;;;9.52;;
47866;SDS011;33628;50.806;11.586;2023-04-29T04:53:05;12.88;;;9.27;;
47866;SDS011;33628;50.806;11.586;2023-04-29T04:55:52;13.95;;;11.65;;
47866;SDS011;33628;50.806;11.586;2023-04-29T04:58:21;15.23;;;12.13;;
47866;SDS011;33628;50.806;11.586;2023-04-29T05:00:47;16.38;;;11.40;;
47866;SDS011;33628;50.806;11.586;2023-04-29T05:03:14;14.40;;;10.95;;
47866;SDS011;33628;50.806;11.586;2023-04-29T05:05:41;15.65;;;11.00;;
47866;SDS011;33628;50.806;11.586;2023-04-29T05:08:08;14.75;;;10.38;;
47866;SDS011;33628;50.806;11.586;2023-04-29T05:10:42;13.50;;;11.32;;
47866;SDS011;33628;50.806;11.586;2023-04-29T05:13:09;15.13;;;10.48;;
47866;SDS011;33628;50.806;11.586;2023-04-29T05:15:38;16.00;;;10.45;;
47866;SDS011;33628;50.806;11.586;2023-04-29T05:18:06;11.85;;;9.55;;
47866;SDS011;33628;50.806;11.586;2023-04-29T05:20:33;15.30;;;9.80;;
47866;SDS011;33628;50.806;11.586;2023-04-29T05:23:01;12.93;;;9.90;;
47866;SDS011;33628;50.806;11.586;2023-04-29T05:25:30;16.58;;;12.55;;
47866;SDS011;33628;50.806;11.586;2023-04-29T05:27:57;14.48;;;10.38;;
47866;SDS011;33628;50.806;11.586;2023-04-29T05:30:25;15.57;;;10.48;;
47866;SDS011;33628;50.806;11.586;2023-04-29T05:32:54;13.77;;;10.50;;
47866;SDS011;33628;50.806;11.586;2023-04-29T05:35:21;13.07;;;9.75;;
47866;SDS011;33628;50.806;11.586;2023-04-29T05:37:48;13.13;;;10.93;;
47866;SDS011;33628;50.806;11.586;2023-04-29T05:40:38;16.75;;;11.88;;
47866;SDS011;33628;50.806;11.586;2023-04-29T05:43:37;17.73;;;13.73;;
47866;SDS011;33628;50.806;11.586;2023-04-29T05:46:04;16.48;;;13.60;;
47866;SDS011;33628;50.806;11.586;2023-04-29T05:48:32;17.20;;;13.70;;
47866;SDS011;33628;50.806;11.586;2023-04-29T05:50:59;19.27;;;14.20;;
47866;SDS011;33628;50.806;11.586;2023-04-29T05:53:26;18.52;;;14.18;;
47866;SDS011;33628;50.806;11.586;2023-04-29T05:55:52;14.98;;;12.13;;
47866;SDS011;33628;50.806;11.586;2023-04-29T05:58:20;11.70;;;9.82;;
47866;SDS011;33628;50.806;11.586;2023-04-29T06:00:47;12.55;;;9.48;;
47866;SDS011;33628;50.806;11.586;2023-04-29T06:03:20;13.48;;;9.10;;
47866;SDS011;33628;50.806;11.586;2023-04-29T06:05:51;11.13;;;8.90;;
47866;SDS011;33628;50.806;11.586;2023-04-29T06:08:34;10.70;;;8.88;;
47866;SDS011;33628;50.806;11.586;2023-04-29T06:11:04;10.00;;;8.57;;
47866;SDS011;33628;50.806;11.586;2023-04-29T06:13:31;10.48;;;8.23;;
47866;SDS011;33628;50.806;11.586;2023-04-29T06:15:58;15.05;;;8.02;;
47866;SDS011;33628;50.806;11.586;2023-04-29T06:18:26;11.23;;;7.50;;
47866;SDS011;33628;50.806;11.586;2023-04-29T06:20:54;8.10;;;6.72;;
47866;SDS011;33628;50.806;11.586;2023-04-29T06:23:21;8.82;;;6.65;;
47866;SDS011;33628;50.806;11.586;2023-04-29T06:25:48;9.52;;;7.20;;
47866;SDS011;33628;50.806;11.586;2023-04-29T06:28:15;9.23;;;7.22;;
47866;SDS011;33628;50.806;11.586;2023-04-29T06:30:42;10.30;;;7.50;;
47866;SDS011;33628;50.806;11.586;2023-04-29T06:33:10;10.57;;;6.90;;
47866;SDS011;33628;50.806;11.586;2023-04-29T06:35:39;8.60;;;7.32;;
47866;SDS011;33628;50.806;11.586;2023-04-29T06:38:22;8.30;;;7.38;;
47866;SDS011;33628;50.806;11.586;2023-04-29T06:44:03;9.73;;;7.65;;
47866;SDS011;33628;50.806;11.586;2023-04-29T06:46:49;9.57;;;7.78;;
47866;SDS011;33628;50.806;11.586;2023-04-29T06:49:19;10.93;;;8.15;;
47866;SDS011;33628;50.806;11.586;2023-04-29T06:51:48;9.65;;;8.10;;
47866;SDS011;33628;50.806;11.586;2023-04-29T06:54:16;10.25;;;7.75;;
47866;SDS011;33628;50.806;11.586;2023-04-29T06:56:42;12.40;;;7.50;;
47866;SDS011;33628;50.806;11.586;2023-04-29T06:59:09;9.27;;;7.00;;
47866;SDS011;33628;50.806;11.586;2023-04-29T07:01:37;9.38;;;6.40;;
47866;SDS011;33628;50.806;11.586;2023-04-29T07:04:04;10.02;;;6.35;;
47866;SDS011;33628;50.806;11.586;2023-04-29T07:06:31;12.50;;;7.05;;
47866;SDS011;33628;50.806;11.586;2023-04-29T07:08:58;9.90;;;6.97;;
47866;SDS011;33628;50.806;11.586;2023-04-29T07:11:28;8.73;;;6.85;;
47866;SDS011;33628;50.806;11.586;2023-04-29T07:13:55;8.68;;;6.53;;
47866;SDS011;33628;50.806;11.586;2023-04-29T07:16:21;9.30;;;6.88;;
47866;SDS011;33628;50.806;11.586;2023-04-29T07:18:51;10.25;;;7.15;;
47866;SDS011;33628;50.806;11.586;2023-04-29T07:21:17;10.30;;;6.53;;
47866;SDS011;33628;50.806;11.586;2023-04-29T07:23:44;9.52;;;6.93;;
47866;SDS011;33628;50.806;11.586;2023-04-29T07:26:11;9.30;;;6.75;;
47866;SDS011;33628;50.806;11.586;2023-04-29T07:28:40;9.75;;;7.28;;
47866;SDS011;33628;50.806;11.586;2023-04-29T07:31:08;9.00;;;7.03;;
47866;SDS011;33628;50.806;11.586;2023-04-29T07:33:39;10.95;;;6.82;;
47866;SDS011;33628;50.806;11.586;2023-04-29T07:36:06;10.40;;;7.10;;
47866;SDS011;33628;50.806;11.586;2023-04-29T07:38:34;11.10;;;7.13;;
47866;SDS011;33628;50.806;11.586;2023-04-29T07:41:01;10.52;;;7.55;;
47866;SDS011;33628;50.806;11.586;2023-04-29T07:43:31;10.15;;;7.15;;
47866;SDS011;33628;50.806;11.586;2023-04-29T07:46:01;9.60;;;6.80;;
47866;SDS011;33628;50.806;11.586;2023-04-29T07:48:28;10.65;;;6.25;;
47866;SDS011;33628;50.806;11.586;2023-04-29T07:57:48;9.18;;;5.60;;
47866;SDS011;33628;50.806;11.586;2023-04-29T08:00:15;8.68;;;5.03;;
47866;SDS011;33628;50.806;11.586;2023-04-29T08:02:50;8.18;;;5.88;;
47866;SDS011;33628;50.806;11.586;2023-04-29T08:05:17;7.10;;;5.18;;
47866;SDS011;33628;50.806;11.586;2023-04-29T08:07:47;10.82;;;8.07;;
47866;SDS011;33628;50.806;11.586;2023-04-29T08:13:00;18.90;;;12.03;;
47866;SDS011;33628;50.806;11.586;2023-04-29T08:15:27;9.07;;;6.05;;
47866;SDS011;33628;50.806;11.586;2023-04-29T08:17:55;7.60;;;4.55;;
47866;SDS011;33628;50.806;11.586;2023-04-29T08:20:22;7.85;;;5.13;;
47866;SDS011;33628;50.806;11.586;2023-04-29T08:22:52;8.73;;;4.95;;
47866;SDS011;33628;50.806;11.586;2023-04-29T08:25:18;6.43;;;4.75;;
47866;SDS011;33628;50.806;11.586;2023-04-29T08:27:45;6.10;;;4.47;;
47866;SDS011;33628;50.806;11.586;2023-04-29T08:30:12;7.00;;;5.10;;
47866;SDS011;33628;50.806;11.586;2023-04-29T08:32:39;9.13;;;4.95;;
47866;SDS011;33628;50.806;11.586;2023-04-29T08:35:08;8.07;;;5.07;;
47866;SDS011;33628;50.806;11.586;2023-04-29T08:37:35;7.75;;;5.07;;
47866;SDS011;33628;50.806;11.586;2023-04-29T08:40:02;8.30;;;4.80;;
47866;SDS011;33628;50.806;11.586;2023-04-29T08:42:31;6.50;;;4.60;;
47866;SDS011;33628;50.806;11.586;2023-04-29T08:44:59;6.50;;;4.53;;
47866;SDS011;33628;50.806;11.586;2023-04-29T08:47:28;8.15;;;4.90;;
47866;SDS011;33628;50.806;11.586;2023-04-29T08:49:56;7.28;;;5.38;;
47866;SDS011;33628;50.806;11.586;2023-04-29T08:52:25;7.15;;;4.80;;
47866;SDS011;33628;50.806;11.586;2023-04-29T08:54:52;6.80;;;5.10;;
47866;SDS011;33628;50.806;11.586;2023-04-29T08:57:22;9.00;;;5.60;;
47866;SDS011;33628;50.806;11.586;2023-04-29T08:59:51;7.28;;;5.38;;
47866;SDS011;33628;50.806;11.586;2023-04-29T09:02:18;7.78;;;5.22;;
47866;SDS011;33628;50.806;11.586;2023-04-29T09:04:46;6.07;;;4.55;;
47866;SDS011;33628;50.806;11.586;2023-04-29T09:07:16;7.15;;;4.80;;
47866;SDS011;33628;50.806;11.586;2023-04-29T09:09:44;7.82;;;4.95;;
47866;SDS011;33628;50.806;11.586;2023-04-29T09:12:12;7.10;;;4.80;;
47866;SDS011;33628;50.806;11.586;2023-04-29T09:14:39;5.82;;;4.30;;
47866;SDS011;33628;50.806;11.586;2023-04-29T09:17:06;6.38;;;4.70;;
47866;SDS011;33628;50.806;11.586;2023-04-29T09:19:33;6.82;;;4.63;;
47866;SDS011;33628;50.806;11.586;2023-04-29T09:22:01;5.00;;;3.65;;
47866;SDS011;33628;50.806;11.586;2023-04-29T09:24:29;6.53;;;4.32;;
47866;SDS011;33628;50.806;11.586;2023-04-29T09:26:58;6.50;;;4.47;;
47866;SDS011;33628;50.806;11.586;2023-04-29T09:29:25;5.25;;;3.85;;
47866;SDS011;33628;50.806;11.586;2023-04-29T09:31:51;5.97;;;4.47;;
47866;SDS011;33628;50.806;11.586;2023-04-29T09:34:29;5.20;;;3.80;;
47866;SDS011;33628;50.806;11.586;2023-04-29T09:36:56;5.50;;;4.32;;
47866;SDS011;33628;50.806;11.586;2023-04-29T09:39:24;5.82;;;4.43;;
47866;SDS011;33628;50.806;11.586;2023-04-29T09:41:58;6.78;;;4.53;;
47866;SDS011;33628;50.806;11.586;2023-04-29T09:44:28;6.65;;;5.10;;
47866;SDS011;33628;50.806;11.586;2023-04-29T09:46:55;6.68;;;4.90;;
47866;SDS011;33628;50.806;11.586;2023-04-29T09:49:23;7.63;;;5.05;;
47866;SDS011;33628;50.806;11.586;2023-04-29T09:51:51;7.78;;;4.43;;
47866;SDS011;33628;50.806;11.586;2023-04-29T09:54:19;6.07;;;4.78;;
47866;SDS011;33628;50.806;11.586;2023-04-29T09:56:47;6.70;;;4.45;;
47866;SDS011;33628;50.806;11.586;2023-04-29T09:59:16;6.65;;;4.10;;
47866;SDS011;33628;50.806;11.586;2023-04-29T10:01:45;6.97;;;4.10;;
47866;SDS011;33628;50.806;11.586;2023-04-29T10:04:13;6.65;;;4.22;;
47866;SDS011;33628;50.806;11.586;2023-04-29T10:06:41;7.03;;;4.38;;
47866;SDS011;33628;50.806;11.586;2023-04-29T10:09:10;6.28;;;4.13;;
47866;SDS011;33628;50.806;11.586;2023-04-29T10:11:40;4.63;;;3.70;;
47866;SDS011;33628;50.806;11.586;2023-04-29T10:14:09;6.40;;;3.78;;
47866;SDS011;33628;50.806;11.586;2023-04-29T10:16:42;5.88;;;3.90;;
47866;SDS011;33628;50.806;11.586;2023-04-29T10:27:25;6.50;;;4.03;;
47866;SDS011;33628;50.806;11.586;2023-04-29T10:29:54;5.50;;;4.35;;
47866;SDS011;33628;50.806;11.586;2023-04-29T10:32:23;6.85;;;4.00;;
47866;SDS011;33628;50.806;11.586;2023-04-29T10:34:51;6.75;;;4.53;;
47866;SDS011;33628;50.806;11.586;2023-04-29T10:37:19;5.70;;;4.45;;
47866;SDS011;33628;50.806;11.586;2023-04-29T10:39:47;6.13;;;4.05;;
47866;SDS011;33628;50.806;11.586;2023-04-29T10:42:19;5.95;;;4.10;;
47866;SDS011;33628;50.806;11.586;2023-04-29T10:50:40;6.97;;;4.60;;
47866;SDS011;33628;50.806;11.586;2023-04-29T10:53:26;5.95;;;4.63;;
47866;SDS011;33628;50.806;11.586;2023-04-29T10:55:55;5.53;;;4.68;;
47866;SDS011;33628;50.806;11.586;2023-04-29T10:58:35;8.82;;;4.57;;
47866;SDS011;33628;50.806;11.586;2023-04-29T11:01:11;6.53;;;4.90;;
47866;SDS011;33628;50.806;11.586;2023-04-29T11:03:53;5.95;;;4.63;;
47866;SDS011;33628;50.806;11.586;2023-04-29T11:06:24;5.65;;;4.20;;
47866;SDS011;33628;50.806;11.586;2023-04-29T11:09:06;5.38;;;4.18;;
47866;SDS011;33628;50.806;11.586;2023-04-29T11:11:39;5.88;;;4.40;;
47866;SDS011;33628;50.806;11.586;2023-04-29T11:14:08;7.47;;;5.60;;
47866;SDS011;33628;50.806;11.586;2023-04-29T11:16:36;7.68;;;5.55;;
47866;SDS011;33628;50.806;11.586;2023-04-29T11:19:04;7.18;;;4.88;;
47866;SDS011;33628;50.806;11.586;2023-04-29T11:21:33;24.25;;;14.20;;
47866;SDS011;33628;50.806;11.586;2023-04-29T11:24:00;8.75;;;5.90;;
47866;SDS011;33628;50.806;11.586;2023-04-29T11:26:28;5.95;;;4.78;;
47866;SDS011;33628;50.806;11.586;2023-04-29T11:28:55;6.75;;;4.68;;
47866;SDS011;33628;50.806;11.586;2023-04-29T11:31:25;9.35;;;6.20;;
47866;SDS011;33628;50.806;11.586;2023-04-29T11:33:54;10.23;;;6.40;;
47866;SDS011;33628;50.806;11.586;2023-04-29T11:36:22;8.63;;;6.20;;
47866;SDS011;33628;50.806;11.586;2023-04-29T11:38:49;10.55;;;5.93;;
47866;SDS011;33628;50.806;11.586;2023-04-29T11:41:15;7.80;;;5.80;;
47866;SDS011;33628;50.806;11.586;2023-04-29T11:43:44;8.20;;;5.93;;
47866;SDS011;33628;50.806;11.586;2023-04-29T11:46:11;8.30;;;6.35;;
47866;SDS011;33628;50.806;11.586;2023-04-29T11:48:44;8.10;;;6.07;;
47866;SDS011;33628;50.806;11.586;2023-04-29T11:51:12;7.85;;;6.22;;
47866;SDS011;33628;50.806;11.586;2023-04-29T11:53:40;8.98;;;5.93;;
47866;SDS011;33628;50.806;11.586;2023-04-29T11:56:08;8.32;;;6.00;;
47866;SDS011;33628;50.806;11.586;2023-04-29T11:58:35;8.05;;;6.10;;
47866;SDS011;33628;50.806;11.586;2023-04-29T12:01:03;8.18;;;6.07;;
47866;SDS011;33628;50.806;11.586;2023-04-29T12:03:30;9.13;;;7.22;;
47866;SDS011;33628;50.806;11.586;2023-04-29T12:05:58;9.90;;;7.97;;
47866;SDS011;33628;50.806;11.586;2023-04-29T12:08:26;10.02;;;7.90;;
47866;SDS011;33628;50.806;11.586;2023-04-29T12:10:55;12.32;;;8.48;;
47866;SDS011;33628;50.806;11.586;2023-04-29T12:13:24;13.80;;;7.88;;
47866;SDS011;33628;50.806;11.586;2023-04-29T12:15:53;14.68;;;8.98;;
47866;SDS011;33628;50.806;11.586;2023-04-29T12:18:20;13.80;;;10.00;;
47866;SDS011;33628;50.806;11.586;2023-04-29T12:20:48;13.63;;;9.13;;
47866;SDS011;33628;50.806;11.586;2023-04-29T12:23:17;13.48;;;9.32;;
47866;SDS011;33628;50.806;11.586;2023-04-29T12:29:53;12.65;;;9.20;;
47866;SDS011;33628;50.806;11.586;2023-04-29T12:32:22;14.25;;;9.60;;
47866;SDS011;33628;50.806;11.586;2023-04-29T12:34:49;13.32;;;9.90;;
47866;SDS011;33628;50.806;11.586;2023-04-29T12:37:17;15.70;;;10.85;;
47866;SDS011;33628;50.806;11.586;2023-04-29T12:39:48;16.60;;;10.80;;
47866;SDS011;33628;50.806;11.586;2023-04-29T12:42:14;16.63;;;11.48;;
47866;SDS011;33628;50.806;11.586;2023-04-29T12:44:44;16.73;;;11.93;;
47866;SDS011;33628;50.806;11.586;2023-04-29T12:47:15;20.13;;;12.13;;
47866;SDS011;33628;50.806;11.586;2023-04-29T12:49:43;18.10;;;12.32;;
47866;SDS011;33628;50.806;11.586;2023-04-29T12:52:11;17.15;;;12.35;;
47866;SDS011;33628;50.806;11.586;2023-04-29T12:54:38;17.08;;;12.55;;
47866;SDS011;33628;50.806;11.586;2023-04-29T12:57:08;17.65;;;12.27;;
47866;SDS011;33628;50.806;11.586;2023-04-29T12:59:35;19.33;;;13.05;;
47866;SDS011;33628;50.806;11.586;2023-04-29T13:05:47;22.13;;;12.45;;
47866;SDS011;33628;50.806;11.586;2023-04-29T13:08:17;19.38;;;13.02;;
47866;SDS011;33628;50.806;11.586;2023-04-29T13:10:44;18.48;;;12.55;;
47866;SDS011;33628;50.806;11.586;2023-04-29T13:13:11;17.10;;;11.98;;
47866;SDS011;33628;50.806;11.586;2023-04-29T13:15:38;15.68;;;11.43;;
47866;SDS011;33628;50.806;11.586;2023-04-29T13:18:05;16.13;;;11.50;;
47866;SDS011;33628;50.806;11.586;2023-04-29T13:20:31;18.15;;;12.15;;
47866;SDS011;33628;50.806;11.586;2023-04-29T13:23:00;17.63;;;11.35;;
47866;SDS011;33628;50.806;11.586;2023-04-29T13:25:27;15.65;;;10.25;;
47866;SDS011;33628;50.806;11.586;2023-04-29T13:27:54;15.45;;;11.07;;
47866;SDS011;33628;50.806;11.586;2023-04-29T13:30:20;14.05;;;10.38;;
47866;SDS011;33628;50.806;11.586;2023-04-29T13:32:47;13.48;;;10.55;;
47866;SDS011;33628;50.806;11.586;2023-04-29T13:35:14;12.82;;;10.45;;
47866;SDS011;33628;50.806;11.586;2023-04-29T13:37:41;13.13;;;10.07;;
47866;SDS011;33628;50.806;11.586;2023-04-29T13:40:09;13.95;;;10.55;;
47866;SDS011;33628;50.806;11.586;2023-04-29T13:42:37;13.55;;;9.98;;
47866;SDS011;33628;50.806;11.586;2023-04-29T13:45:03;12.82;;;10.05;;
47866;SDS011;33628;50.806;11.586;2023-04-29T13:47:31;13.52;;;10.38;;
47866;SDS011;33628;50.806;11.586;2023-04-29T13:49:58;13.32;;;10.25;;
47866;SDS011;33628;50.806;11.586;2023-04-29T13:52:25;13.77;;;10.40;;
47866;SDS011;33628;50.806;11.586;2023-04-29T13:54:56;16.40;;;10.40;;
47866;SDS011;33628;50.806;11.586;2023-04-29T13:57:24;13.10;;;10.23;;
47866;SDS011;33628;50.806;11.586;2023-04-29T13:59:52;14.77;;;10.43;;
47866;SDS011;33628;50.806;11.586;2023-04-29T14:02:20;14.55;;;10.43;;
47866;SDS011;33628;50.806;11.586;2023-04-29T14:04:47;17.35;;;10.60;;
47866;SDS011;33628;50.806;11.586;2023-04-29T14:07:14;13.18;;;10.27;;
47866;SDS011;33628;50.806;11.586;2023-04-29T14:09:41;12.63;;;10.20;;
47866;SDS011;33628;50.806;11.586;2023-04-29T14:12:07;14.05;;;10.68;;
47866;SDS011;33628;50.806;11.586;2023-04-29T14:14:35;13.20;;;10.05;;
47866;SDS011;33628;50.806;11.586;2023-04-29T14:17:02;14.07;;;11.32;;
47866;SDS011;33628;50.806;11.586;2023-04-29T14:19:29;14.32;;;10.80;;
47866;SDS011;33628;50.806;11.586;2023-04-29T14:21:56;14.40;;;10.45;;
47866;SDS011;33628;50.806;11.586;2023-04-29T14:24:23;14.23;;;11.45;;
47866;SDS011;33628;50.806;11.586;2023-04-29T14:26:49;15.15;;;11.52;;
47866;SDS011;33628;50.806;11.586;2023-04-29T14:29:18;14.00;;;11.15;;
47866;SDS011;33628;50.806;11.586;2023-04-29T14:31:46;15.38;;;12.13;;
47866;SDS011;33628;50.806;11.586;2023-04-29T14:34:12;16.63;;;11.95;;
47866;SDS011;33628;50.806;11.586;2023-04-29T14:36:39;15.95;;;11.70;;
47866;SDS011;33628;50.806;11.586;2023-04-29T14:39:06;17.67;;;12.80;;
47866;SDS011;33628;50.806;11.586;2023-04-29T14:41:33;19.90;;;14.10;;
47866;SDS011;33628;50.806;11.586;2023-04-29T14:44:00;19.35;;;14.15;;
47866;SDS011;33628;50.806;11.586;2023-04-29T14:46:27;17.50;;;12.95;;
47866;SDS011;33628;50.806;11.586;2023-04-29T14:48:56;14.70;;;12.23;;
47866;SDS011;33628;50.806;11.586;2023-04-29T14:51:23;15.55;;;13.23;;
47866;SDS011;33628;50.806;11.586;2023-04-29T14:53:50;18.52;;;13.93;;
47866;SDS011;33628;50.806;11.586;2023-04-29T14:56:17;22.52;;;15.57;;
47866;SDS011;33628;50.806;11.586;2023-04-29T14:58:44;16.85;;;13.07;;
47866;SDS011;33628;50.806;11.586;2023-04-29T15:01:11;15.88;;;11.98;;
47866;SDS011;33628;50.806;11.586;2023-04-29T15:03:38;14.35;;;11.30;;
47866;SDS011;33628;50.806;11.586;2023-04-29T15:06:07;14.57;;;10.85;;